sensor_id;sensor_type;location;lat;lon;timestamp;pressure;altitude;pressure_sealevel;temperature;humidity
12349;BME280;5974;42.710;27.258;2023-12-20T00:00:59;100528.31;;;0.54;100.00
12349;BME280;5974;42.710;27.258;2023-12-20T00:03:26;100603.22;;;0.99;100.00
12349;BME280;5974;42.710;27.258;2023-12-20T00:05:53;100597.75;;;0.55;100.00
12349;BME280;5974;42.710;27.258;2023-12-20T00:08:19;100600.56;;;0.83;100.00
12349;BME280;5974;42.710;27.258;2023-12-20T00:10:46;100601.56;;;1.11;100.00
12349;BME280;5974;42.710;27.258;2023-12-20T00:13:13;100601.50;;;1.00;100.00
12349;BME280;5974;42.710;27.258;2023-12-20T00:15:40;100606.69;;;1.09;100.00
12349;BME280;5974;42.710;27.258;2023-12-20T00:18:08;100606.59;;;0.95;100.00
12349;BME280;5974;42.710;27.258;2023-12-20T00:20:35;100600.56;;;0.87;100.00
12349;BME280;5974;42.710;27.258;2023-12-20T00:23:01;100595.34;;;0.75;100.00
12349;BME280;5974;42.710;27.258;2023-12-20T00:25:28;100594.66;;;1.03;100.00
12349;BME280;5974;42.710;27.258;2023-12-20T00:27:55;100594.69;;;1.11;100.00
12349;BME280;5974;42.710;27.258;2023-12-20T00:30:22;100588.69;;;1.12;100.00
12349;BME280;5974;42.710;27.258;2023-12-20T00:32:49;100589.50;;;1.02;100.00
12349;BME280;5974;42.710;27.258;2023-12-20T00:35:17;100584.38;;;1.08;100.00
12349;BME280;5974;42.710;27.258;2023-12-20T00:37:44;100581.00;;;1.15;100.00
12349;BME280;5974;42.710;27.258;2023-12-20T00:40:11;100574.97;;;1.10;100.00
12349;BME280;5974;42.710;27.258;2023-12-20T00:42:38;100571.50;;;1.08;100.00
12349;BME280;5974;42.710;27.258;2023-12-20T00:45:05;100573.94;;;0.84;100.00
12349;BME280;5974;42.710;27.258;2023-12-20T00:47:32;100573.13;;;0.89;100.00
12349;BME280;5974;42.710;27.258;2023-12-20T00:49:59;100565.47;;;1.03;100.00
12349;BME280;5974;42.710;27.258;2023-12-20T00:52:27;100562.13;;;1.19;100.00
12349;BME280;5974;42.710;27.258;2023-12-20T00:54:54;100550.94;;;1.14;100.00
12349;BME280;5974;42.710;27.258;2023-12-20T00:57:21;100553.50;;;1.11;100.00
12349;BME280;5974;42.710;27.258;2023-12-20T00:59:47;100534.59;;;1.03;100.00
12349;BME280;5974;42.710;27.258;2023-12-20T01:02:14;100540.63;;;1.14;100.00
12349;BME280;5974;42.710;27.258;2023-12-20T01:04:41;100531.16;;;1.05;100.00
12349;BME280;5974;42.710;27.258;2023-12-20T01:07:08;100538.75;;;0.78;100.00
12349;BME280;5974;42.710;27.258;2023-12-20T01:09:36;100526.84;;;0.94;100.00
12349;BME280;5974;42.710;27.258;2023-12-20T01:12:03;100532.03;;;1.06;100.00
12349;BME280;5974;42.710;27.258;2023-12-20T01:14:30;100491.56;;;0.75;100.00
12349;BME280;5974;42.710;27.258;2023-12-20T01:16:57;100483.94;;;0.94;100.00
12349;BME280;5974;42.710;27.258;2023-12-20T01:19:24;100517.47;;;1.09;100.00
12349;BME280;5974;42.710;27.258;2023-12-20T01:21:52;100513.22;;;1.27;100.00
12349;BME280;5974;42.710;27.258;2023-12-20T01:24:19;100506.06;;;0.61;100.00
12349;BME280;5974;42.710;27.258;2023-12-20T01:26:47;100510.56;;;0.98;100.00
12349;BME280;5974;42.710;27.258;2023-12-20T01:29:14;100503.81;;;1.33;100.00
12349;BME280;5974;42.710;27.258;2023-12-20T01:31:41;100502.06;;;1.19;100.00
12349;BME280;5974;42.710;27.258;2023-12-20T01:34:08;100503.78;;;1.30;100.00
12349;BME280;5974;42.710;27.258;2023-12-20T01:36:34;100505.50;;;1.33;100.00
12349;BME280;5974;42.710;27.258;2023-12-20T01:39:01;100496.09;;;1.38;100.00
12349;BME280;5974;42.710;27.258;2023-12-20T01:41:28;100498.59;;;1.11;100.00
12349;BME280;5974;42.710;27.258;2023-12-20T01:43:56;100488.25;;;0.97;100.00
12349;BME280;5974;42.710;27.258;2023-12-20T01:46:23;100468.47;;;0.87;100.00
12349;BME280;5974;42.710;27.258;2023-12-20T01:48:51;100483.41;;;0.05;100.00
12349;BME280;5974;42.710;27.258;2023-12-20T01:51:18;100477.53;;;0.21;100.00
12349;BME280;5974;42.710;27.258;2023-12-20T01:53:46;100477.69;;;0.42;100.00
12349;BME280;5974;42.710;27.258;2023-12-20T01:56:14;100474.38;;;0.66;100.00
12349;BME280;5974;42.710;27.258;2023-12-20T01:58:43;100476.16;;;0.81;100.00
12349;BME280;5974;42.710;27.258;2023-12-20T02:01:12;100463.25;;;0.70;100.00
12349;BME280;5974;42.710;27.258;2023-12-20T02:03:40;100470.16;;;0.83;100.00
12349;BME280;5974;42.710;27.258;2023-12-20T02:06:07;100467.66;;;1.00;100.00
12349;BME280;5974;42.710;27.258;2023-12-20T02:08:34;100460.75;;;0.90;100.00
12349;BME280;5974;42.710;27.258;2023-12-20T02:11:01;100457.41;;;1.11;100.00
12349;BME280;5974;42.710;27.258;2023-12-20T02:13:28;100447.06;;;1.03;100.00
12349;BME280;5974;42.710;27.258;2023-12-20T02:15:55;100447.03;;;0.91;100.00
12349;BME280;5974;42.710;27.258;2023-12-20T02:18:23;100449.59;;;0.85;100.00
12349;BME280;5974;42.710;27.258;2023-12-20T02:20:50;100441.88;;;0.85;100.00
12349;BME280;5974;42.710;27.258;2023-12-20T02:23:18;100445.31;;;0.85;100.00
12349;BME280;5974;42.710;27.258;2023-12-20T02:25:46;100440.19;;;0.99;100.00
12349;BME280;5974;42.710;27.258;2023-12-20T02:28:13;100435.69;;;0.49;100.00
12349;BME280;5974;42.710;27.258;2023-12-20T02:30:40;100436.72;;;0.86;100.00
12349;BME280;5974;42.710;27.258;2023-12-20T02:33:08;100434.03;;;0.54;100.00
12349;BME280;5974;42.710;27.258;2023-12-20T02:35:37;100426.91;;;0.11;100.00
12349;BME280;5974;42.710;27.258;2023-12-20T02:38:04;100425.09;;;-0.07;100.00
12349;BME280;5974;42.710;27.258;2023-12-20T02:40:32;100416.66;;;0.19;100.00
12349;BME280;5974;42.710;27.258;2023-12-20T02:42:59;100426.28;;;0.51;100.00
12349;BME280;5974;42.710;27.258;2023-12-20T02:45:26;100427.19;;;0.61;100.00
12349;BME280;5974;42.710;27.258;2023-12-20T02:47:53;100414.28;;;0.50;100.00
12349;BME280;5974;42.710;27.258;2023-12-20T02:50:20;100423.66;;;0.39;100.00
12349;BME280;5974;42.710;27.258;2023-12-20T02:52:47;100421.94;;;0.41;100.00
12349;BME280;5974;42.710;27.258;2023-12-20T02:55:13;100420.06;;;0.10;100.00
12349;BME280;5974;42.710;27.258;2023-12-20T02:57:42;100419.41;;;0.50;100.00
12349;BME280;5974;42.710;27.258;2023-12-20T03:00:09;100417.66;;;0.42;100.00
12349;BME280;5974;42.710;27.258;2023-12-20T03:02:37;100414.19;;;0.35;100.00
12349;BME280;5974;42.710;27.258;2023-12-20T03:05:04;100417.69;;;0.46;100.00
12349;BME280;5974;42.710;27.258;2023-12-20T03:07:31;100403.91;;;0.35;100.00
12349;BME280;5974;42.710;27.258;2023-12-20T03:09:58;100411.56;;;0.28;100.00
12349;BME280;5974;42.710;27.258;2023-12-20T03:12:24;100412.41;;;0.22;100.00
12349;BME280;5974;42.710;27.258;2023-12-20T03:14:53;100408.16;;;0.24;100.00
12349;BME280;5974;42.710;27.258;2023-12-20T03:17:19;100400.63;;;0.67;100.00
12349;BME280;5974;42.710;27.258;2023-12-20T03:19:46;100397.31;;;0.95;100.00
12349;BME280;5974;42.710;27.258;2023-12-20T03:22:13;100394.78;;;1.16;100.00
12349;BME280;5974;42.710;27.258;2023-12-20T03:24:40;100389.50;;;0.68;100.00
12349;BME280;5974;42.710;27.258;2023-12-20T03:27:06;100387.00;;;0.86;100.00
12349;BME280;5974;42.710;27.258;2023-12-20T03:29:33;100392.22;;;1.22;100.00
12349;BME280;5974;42.710;27.258;2023-12-20T03:32:03;100391.22;;;0.73;100.00
12349;BME280;5974;42.710;27.258;2023-12-20T03:34:30;100381.88;;;1.07;100.00
12349;BME280;5974;42.710;27.258;2023-12-20T03:36:57;100381.88;;;1.02;100.00
12349;BME280;5974;42.710;27.258;2023-12-20T03:39:23;100379.31;;;1.07;100.00
12349;BME280;5974;42.710;27.258;2023-12-20T03:41:50;100382.75;;;1.14;100.00
12349;BME280;5974;42.710;27.258;2023-12-20T03:44:17;100371.56;;;0.98;100.00
12349;BME280;5974;42.710;27.258;2023-12-20T03:46:44;100371.56;;;0.99;100.00
12349;BME280;5974;42.710;27.258;2023-12-20T03:49:13;100372.47;;;1.23;100.00
12349;BME280;5974;42.710;27.258;2023-12-20T03:51:40;100373.34;;;1.32;100.00
12349;BME280;5974;42.710;27.258;2023-12-20T03:54:07;100363.88;;;1.24;100.00
12349;BME280;5974;42.710;27.258;2023-12-20T03:56:34;100353.59;;;1.25;100.00
12349;BME280;5974;42.710;27.258;2023-12-20T03:59:00;100360.47;;;1.29;100.00
12349;BME280;5974;42.710;27.258;2023-12-20T04:01:27;100360.47;;;1.44;100.00
12349;BME280;5974;42.710;27.258;2023-12-20T04:03:54;100359.59;;;1.51;100.00
12349;BME280;5974;42.710;27.258;2023-12-20T04:06:21;100360.47;;;1.44;100.00
12349;BME280;5974;42.710;27.258;2023-12-20T04:08:48;100352.75;;;1.29;100.00
12349;BME280;5974;42.710;27.258;2023-12-20T04:11:15;100349.31;;;1.29;100.00
12349;BME280;5974;42.710;27.258;2023-12-20T04:13:42;100346.72;;;1.41;100.00
12349;BME280;5974;42.710;27.258;2023-12-20T04:16:08;100342.41;;;1.26;100.00
12349;BME280;5974;42.710;27.258;2023-12-20T04:18:35;100338.97;;;1.18;100.00
12349;BME280;5974;42.710;27.258;2023-12-20T04:21:02;100339.78;;;0.78;100.00
12349;BME280;5974;42.710;27.258;2023-12-20T04:23:30;100343.25;;;0.86;100.00
12349;BME280;5974;42.710;27.258;2023-12-20T04:25:57;100333.78;;;0.76;100.00
12349;BME280;5974;42.710;27.258;2023-12-20T04:28:24;100336.31;;;0.67;100.00
12349;BME280;5974;42.710;27.258;2023-12-20T04:30:51;100335.53;;;0.83;100.00
12349;BME280;5974;42.710;27.258;2023-12-20T04:33:17;100338.94;;;0.91;100.00
12349;BME280;5974;42.710;27.258;2023-12-20T04:35:44;100333.81;;;0.91;100.00
12349;BME280;5974;42.710;27.258;2023-12-20T04:38:11;100334.63;;;0.67;100.00
12349;BME280;5974;42.710;27.258;2023-12-20T04:40:39;100337.19;;;0.64;100.00
12349;BME280;5974;42.710;27.258;2023-12-20T04:43:06;100334.63;;;0.67;100.00
12349;BME280;5974;42.710;27.258;2023-12-20T04:45:34;100332.88;;;0.60;100.00
12349;BME280;5974;42.710;27.258;2023-12-20T04:48:01;100329.44;;;0.52;100.00
12349;BME280;5974;42.710;27.258;2023-12-20T04:50:29;100317.44;;;0.57;100.00
12349;BME280;5974;42.710;27.258;2023-12-20T04:52:56;100324.25;;;0.43;100.00
12349;BME280;5974;42.710;27.258;2023-12-20T04:55:23;100315.69;;;0.56;100.00
12349;BME280;5974;42.710;27.258;2023-12-20T04:57:51;100313.13;;;0.48;100.00
12349;BME280;5974;42.710;27.258;2023-12-20T05:00:18;100312.22;;;0.33;100.00
12349;BME280;5974;42.710;27.258;2023-12-20T05:02:45;100302.81;;;0.42;100.00
12349;BME280;5974;42.710;27.258;2023-12-20T05:05:12;100303.69;;;0.44;100.00
12349;BME280;5974;42.710;27.258;2023-12-20T05:07:40;100303.69;;;0.47;100.00
12349;BME280;5974;42.710;27.258;2023-12-20T05:10:08;100301.13;;;0.50;100.00
12349;BME280;5974;42.710;27.258;2023-12-20T05:12:34;100301.13;;;0.46;100.00
12349;BME280;5974;42.710;27.258;2023-12-20T05:15:04;100299.41;;;0.52;100.00
12349;BME280;5974;42.710;27.258;2023-12-20T05:17:31;100299.44;;;0.62;100.00
12349;BME280;5974;42.710;27.258;2023-12-20T05:19:57;100272.88;;;0.55;100.00
12349;BME280;5974;42.710;27.258;2023-12-20T05:22:24;100290.03;;;0.64;100.00
12349;BME280;5974;42.710;27.258;2023-12-20T05:24:52;100288.28;;;0.58;100.00
12349;BME280;5974;42.710;27.258;2023-12-20T05:27:19;100290.81;;;0.41;100.00
12349;BME280;5974;42.710;27.258;2023-12-20T05:29:46;100288.28;;;0.55;100.00
12349;BME280;5974;42.710;27.258;2023-12-20T05:32:14;100291.69;;;0.52;100.00
12349;BME280;5974;42.710;27.258;2023-12-20T05:34:41;100290.03;;;0.67;100.00
12349;BME280;5974;42.710;27.258;2023-12-20T05:37:08;100292.59;;;0.67;100.00
12349;BME280;5974;42.710;27.258;2023-12-20T05:39:35;100292.56;;;0.58;100.00
12349;BME280;5974;42.710;27.258;2023-12-20T05:42:01;100287.44;;;0.64;100.00
12349;BME280;5974;42.710;27.258;2023-12-20T05:44:28;100289.06;;;0.33;100.00
12349;BME280;5974;42.710;27.258;2023-12-20T05:46:55;100292.31;;;-0.06;100.00
12349;BME280;5974;42.710;27.258;2023-12-20T05:49:23;100291.13;;;-0.66;100.00
12349;BME280;5974;42.710;27.258;2023-12-20T05:51:50;100289.56;;;-0.42;100.00
12349;BME280;5974;42.710;27.258;2023-12-20T05:54:17;100289.50;;;-0.53;100.00
12349;BME280;5974;42.710;27.258;2023-12-20T05:56:43;100292.44;;;0.15;100.00
12349;BME280;5974;42.710;27.258;2023-12-20T05:59:10;100287.41;;;0.50;100.00
12349;BME280;5974;42.710;27.258;2023-12-20T06:01:37;100283.13;;;0.60;100.00
12349;BME280;5974;42.710;27.258;2023-12-20T06:04:04;100284.03;;;0.69;100.00
12349;BME280;5974;42.710;27.258;2023-12-20T06:06:32;100290.03;;;0.67;100.00
12349;BME280;5974;42.710;27.258;2023-12-20T06:08:59;100289.22;;;0.86;100.00
12349;BME280;5974;42.710;27.258;2023-12-20T06:11:26;100279.78;;;0.94;100.00
12349;BME280;5974;42.710;27.258;2023-12-20T06:14:11;100282.34;;;1.01;100.00
12349;BME280;5974;42.710;27.258;2023-12-20T06:16:38;100286.63;;;1.21;100.00
12349;BME280;5974;42.710;27.258;2023-12-20T06:19:05;100288.34;;;0.85;100.00
12349;BME280;5974;42.710;27.258;2023-12-20T06:21:33;100285.75;;;1.23;100.00
12349;BME280;5974;42.710;27.258;2023-12-20T06:24:00;100285.78;;;1.31;100.00
12349;BME280;5974;42.710;27.258;2023-12-20T06:26:26;100291.78;;;1.21;100.00
12349;BME280;5974;42.710;27.258;2023-12-20T06:28:53;100289.19;;;1.58;100.00
12349;BME280;5974;42.710;27.258;2023-12-20T06:31:20;100291.38;;;2.60;100.00
12349;BME280;5974;42.710;27.258;2023-12-20T06:33:47;100295.78;;;3.61;100.00
12349;BME280;5974;42.710;27.258;2023-12-20T06:36:22;100269.84;;;4.42;100.00
12349;BME280;5974;42.710;27.258;2023-12-20T06:38:51;100303.03;;;5.32;100.00
12349;BME280;5974;42.710;27.258;2023-12-20T06:41:17;100269.91;;;5.96;100.00
12349;BME280;5974;42.710;27.258;2023-12-20T06:43:44;100267.53;;;5.84;100.00
12349;BME280;5974;42.710;27.258;2023-12-20T06:46:11;100260.06;;;5.68;100.00
12349;BME280;5974;42.710;27.258;2023-12-20T06:48:39;100257.97;;;5.40;100.00
12349;BME280;5974;42.710;27.258;2023-12-20T06:51:06;100244.91;;;4.95;100.00
12349;BME280;5974;42.710;27.258;2023-12-20T06:53:32;100251.47;;;5.17;100.00
12349;BME280;5974;42.710;27.258;2023-12-20T06:56:01;100255.84;;;5.12;100.00
12349;BME280;5974;42.710;27.258;2023-12-20T06:58:28;100259.81;;;4.77;100.00
12349;BME280;5974;42.710;27.258;2023-12-20T07:00:54;100254.91;;;6.52;100.00
12349;BME280;5974;42.710;27.258;2023-12-20T07:03:21;100245.16;;;8.29;100.00
12349;BME280;5974;42.710;27.258;2023-12-20T07:05:48;100237.59;;;8.49;100.00
12349;BME280;5974;42.710;27.258;2023-12-20T07:08:15;100235.00;;;9.30;100.00
12349;BME280;5974;42.710;27.258;2023-12-20T07:10:41;100227.81;;;9.87;100.00
12349;BME280;5974;42.710;27.258;2023-12-20T07:13:10;100230.53;;;11.39;100.00
12349;BME280;5974;42.710;27.258;2023-12-20T07:15:37;100218.13;;;11.64;100.00
12349;BME280;5974;42.710;27.258;2023-12-20T07:18:04;100226.22;;;10.74;97.61
12349;BME280;5974;42.710;27.258;2023-12-20T07:20:32;100219.41;;;8.48;100.00
12349;BME280;5974;42.710;27.258;2023-12-20T07:22:59;100214.84;;;7.65;100.00
12349;BME280;5974;42.710;27.258;2023-12-20T07:25:26;100228.31;;;6.79;100.00
12349;BME280;5974;42.710;27.258;2023-12-20T07:27:53;100220.66;;;6.35;100.00
12349;BME280;5974;42.710;27.258;2023-12-20T07:30:21;100217.94;;;5.55;100.00
12349;BME280;5974;42.710;27.258;2023-12-20T07:32:48;100225.28;;;5.78;100.00
12349;BME280;5974;42.710;27.258;2023-12-20T07:35:15;100209.50;;;5.42;100.00
12349;BME280;5974;42.710;27.258;2023-12-20T07:37:42;100215.53;;;5.44;100.00
12349;BME280;5974;42.710;27.258;2023-12-20T07:40:09;100221.81;;;5.77;100.00
12349;BME280;5974;42.710;27.258;2023-12-20T07:42:36;100211.06;;;5.98;100.00
12349;BME280;5974;42.710;27.258;2023-12-20T07:45:04;100202.81;;;6.20;100.00
12349;BME280;5974;42.710;27.258;2023-12-20T07:47:32;100207.47;;;6.81;100.00
12349;BME280;5974;42.710;27.258;2023-12-20T07:49:59;100210.00;;;6.84;100.00
12349;BME280;5974;42.710;27.258;2023-12-20T07:52:26;100192.69;;;7.18;100.00
12349;BME280;5974;42.710;27.258;2023-12-20T07:54:52;100193.78;;;7.09;100.00
12349;BME280;5974;42.710;27.258;2023-12-20T07:57:19;100192.53;;;6.90;100.00
12349;BME280;5974;42.710;27.258;2023-12-20T07:59:46;100188.56;;;6.74;100.00
12349;BME280;5974;42.710;27.258;2023-12-20T08:02:13;100193.53;;;6.85;100.00
12349;BME280;5974;42.710;27.258;2023-12-20T08:04:41;100189.66;;;7.01;100.00
12349;BME280;5974;42.710;27.258;2023-12-20T08:07:08;100192.59;;;7.21;100.00
12349;BME280;5974;42.710;27.258;2023-12-20T08:09:35;100179.09;;;7.41;100.00
12349;BME280;5974;42.710;27.258;2023-12-20T08:12:02;100179.28;;;7.33;100.00
12349;BME280;5974;42.710;27.258;2023-12-20T08:14:29;100167.06;;;7.37;100.00
12349;BME280;5974;42.710;27.258;2023-12-20T08:16:56;100169.88;;;7.60;100.00
12349;BME280;5974;42.710;27.258;2023-12-20T08:19:23;100156.53;;;7.72;100.00
12349;BME280;5974;42.710;27.258;2023-12-20T08:21:51;100163.75;;;7.93;100.00
12349;BME280;5974;42.710;27.258;2023-12-20T08:24:18;100158.06;;;8.08;100.00
12349;BME280;5974;42.710;27.258;2023-12-20T08:26:45;100143.84;;;8.20;100.00
12349;BME280;5974;42.710;27.258;2023-12-20T08:29:12;100141.38;;;8.43;100.00
12349;BME280;5974;42.710;27.258;2023-12-20T08:31:39;100137.47;;;8.58;100.00
12349;BME280;5974;42.710;27.258;2023-12-20T08:34:06;100139.41;;;8.78;100.00
12349;BME280;5974;42.710;27.258;2023-12-20T08:36:33;100136.78;;;9.04;100.00
12349;BME280;5974;42.710;27.258;2023-12-20T08:39:01;100129.44;;;9.15;100.00
12349;BME280;5974;42.710;27.258;2023-12-20T08:41:29;100122.19;;;9.94;100.00
12349;BME280;5974;42.710;27.258;2023-12-20T08:43:55;100123.72;;;10.45;100.00
12349;BME280;5974;42.710;27.258;2023-12-20T08:46:22;100122.47;;;10.10;100.00
12349;BME280;5974;42.710;27.258;2023-12-20T08:48:49;100109.41;;;10.33;100.00
12349;BME280;5974;42.710;27.258;2023-12-20T08:51:16;100112.13;;;10.07;100.00
12349;BME280;5974;42.710;27.258;2023-12-20T08:53:43;100102.47;;;10.32;100.00
12349;BME280;5974;42.710;27.258;2023-12-20T08:56:13;100096.19;;;10.14;100.00
12349;BME280;5974;42.710;27.258;2023-12-20T08:58:40;100090.44;;;10.05;100.00
12349;BME280;5974;42.710;27.258;2023-12-20T09:01:07;100048.13;;;10.18;100.00
12349;BME280;5974;42.710;27.258;2023-12-20T09:03:34;100070.91;;;10.78;100.00
12349;BME280;5974;42.710;27.258;2023-12-20T09:06:01;100066.94;;;11.10;100.00
12349;BME280;5974;42.710;27.258;2023-12-20T09:08:28;100068.34;;;10.77;100.00
12349;BME280;5974;42.710;27.258;2023-12-20T09:10:55;100050.78;;;10.60;100.00
12349;BME280;5974;42.710;27.258;2023-12-20T09:13:23;100052.53;;;10.80;100.00
12349;BME280;5974;42.710;27.258;2023-12-20T09:15:53;100042.97;;;10.59;100.00
12349;BME280;5974;42.710;27.258;2023-12-20T09:18:20;100044.69;;;10.80;100.00
12349;BME280;5974;42.710;27.258;2023-12-20T09:20:47;100037.97;;;10.95;100.00
12349;BME280;5974;42.710;27.258;2023-12-20T09:23:13;100037.75;;;10.99;100.00
12349;BME280;5974;42.710;27.258;2023-12-20T09:25:40;100028.91;;;11.22;100.00
12349;BME280;5974;42.710;27.258;2023-12-20T09:28:07;100028.22;;;11.37;100.00
12349;BME280;5974;42.710;27.258;2023-12-20T09:30:35;100023.75;;;11.00;100.00
12349;BME280;5974;42.710;27.258;2023-12-20T09:33:05;100011.81;;;10.74;100.00
12349;BME280;5974;42.710;27.258;2023-12-20T09:35:33;100017.31;;;10.48;100.00
12349;BME280;5974;42.710;27.258;2023-12-20T09:38:00;100014.63;;;10.70;100.00
12349;BME280;5974;42.710;27.258;2023-12-20T09:40:26;99999.94;;;11.06;100.00
12349;BME280;5974;42.710;27.258;2023-12-20T09:42:57;100007.75;;;11.64;100.00
12349;BME280;5974;42.710;27.258;2023-12-20T09:45:24;100001.59;;;11.27;100.00
12349;BME280;5974;42.710;27.258;2023-12-20T09:47:52;99991.13;;;11.65;100.00
12349;BME280;5974;42.710;27.258;2023-12-20T09:50:20;99990.22;;;11.28;100.00
12349;BME280;5974;42.710;27.258;2023-12-20T09:52:49;99986.28;;;11.00;100.00
12349;BME280;5974;42.710;27.258;2023-12-20T09:55:17;99989.22;;;11.50;100.00
12349;BME280;5974;42.710;27.258;2023-12-20T09:57:44;99975.78;;;11.38;100.00
12349;BME280;5974;42.710;27.258;2023-12-20T10:00:12;99968.78;;;11.58;100.00
12349;BME280;5974;42.710;27.258;2023-12-20T10:02:44;99961.41;;;11.66;100.00
12349;BME280;5974;42.710;27.258;2023-12-20T10:05:16;99960.13;;;11.93;100.00
12349;BME280;5974;42.710;27.258;2023-12-20T10:07:44;99938.69;;;11.66;100.00
12349;BME280;5974;42.710;27.258;2023-12-20T10:10:12;99951.34;;;12.28;100.00
12349;BME280;5974;42.710;27.258;2023-12-20T10:12:39;99912.56;;;12.01;100.00
12349;BME280;5974;42.710;27.258;2023-12-20T10:15:06;99945.97;;;12.48;100.00
12349;BME280;5974;42.710;27.258;2023-12-20T10:17:36;99948.66;;;12.64;100.00
12349;BME280;5974;42.710;27.258;2023-12-20T10:20:04;99942.66;;;12.45;100.00
12349;BME280;5974;42.710;27.258;2023-12-20T10:22:37;99927.13;;;12.90;100.00
12349;BME280;5974;42.710;27.258;2023-12-20T10:25:04;99931.09;;;12.82;100.00
12349;BME280;5974;42.710;27.258;2023-12-20T10:27:31;99925.00;;;13.30;100.00
12349;BME280;5974;42.710;27.258;2023-12-20T10:29:59;99908.72;;;12.42;100.00
12349;BME280;5974;42.710;27.258;2023-12-20T10:32:26;99906.78;;;12.78;100.00
12349;BME280;5974;42.710;27.258;2023-12-20T10:34:54;99886.56;;;12.80;100.00
12349;BME280;5974;42.710;27.258;2023-12-20T10:37:21;99898.59;;;13.17;100.00
12349;BME280;5974;42.710;27.258;2023-12-20T10:39:51;99904.19;;;12.45;97.34
12349;BME280;5974;42.710;27.258;2023-12-20T10:42:21;99906.59;;;12.66;99.96
12349;BME280;5974;42.710;27.258;2023-12-20T10:44:49;99907.16;;;12.88;98.51
12349;BME280;5974;42.710;27.258;2023-12-20T10:47:17;99893.78;;;13.10;96.11
12349;BME280;5974;42.710;27.258;2023-12-20T10:49:44;99894.66;;;12.60;95.51
12349;BME280;5974;42.710;27.258;2023-12-20T10:52:12;99891.22;;;13.08;93.69
12349;BME280;5974;42.710;27.258;2023-12-20T10:54:39;99878.44;;;12.52;94.03
12349;BME280;5974;42.710;27.258;2023-12-20T10:57:08;99877.19;;;12.26;94.63
12349;BME280;5974;42.710;27.258;2023-12-20T10:59:36;99881.06;;;12.52;94.23
12349;BME280;5974;42.710;27.258;2023-12-20T11:02:04;99876.84;;;12.49;92.21
12349;BME280;5974;42.710;27.258;2023-12-20T11:04:38;99881.59;;;11.91;94.33
12349;BME280;5974;42.710;27.258;2023-12-20T11:07:17;99870.25;;;12.42;95.62
12349;BME280;5974;42.710;27.258;2023-12-20T11:09:52;99869.25;;;12.93;94.09
12349;BME280;5974;42.710;27.258;2023-12-20T11:12:32;99852.81;;;12.90;92.61
12349;BME280;5974;42.710;27.258;2023-12-20T11:15:01;99871.13;;;12.59;93.60
12349;BME280;5974;42.710;27.258;2023-12-20T11:17:29;99853.00;;;13.02;92.70
12349;BME280;5974;42.710;27.258;2023-12-20T11:20:12;99855.09;;;12.96;92.69
12349;BME280;5974;42.710;27.258;2023-12-20T11:22:52;99849.81;;;12.32;92.25
12349;BME280;5974;42.710;27.258;2023-12-20T11:25:19;99846.84;;;12.05;95.59
12349;BME280;5974;42.710;27.258;2023-12-20T11:28:07;99835.75;;;12.17;95.55
12349;BME280;5974;42.710;27.258;2023-12-20T11:30:42;99836.41;;;11.69;95.29
12349;BME280;5974;42.710;27.258;2023-12-20T11:33:13;99828.91;;;11.80;97.17
12349;BME280;5974;42.710;27.258;2023-12-20T11:35:39;99829.53;;;12.18;97.30
12349;BME280;5974;42.710;27.258;2023-12-20T11:38:08;99826.91;;;12.35;93.85
12349;BME280;5974;42.710;27.258;2023-12-20T11:40:35;99824.34;;;12.51;94.04
12349;BME280;5974;42.710;27.258;2023-12-20T11:43:03;99816.13;;;12.24;93.08
12349;BME280;5974;42.710;27.258;2023-12-20T11:45:30;99817.97;;;11.54;95.62
12349;BME280;5974;42.710;27.258;2023-12-20T11:47:57;99807.34;;;11.57;96.83
12349;BME280;5974;42.710;27.258;2023-12-20T11:50:25;99809.19;;;11.55;97.97
12349;BME280;5974;42.710;27.258;2023-12-20T11:52:52;99806.94;;;11.83;98.33
12349;BME280;5974;42.710;27.258;2023-12-20T11:55:20;99801.72;;;12.33;95.80
12349;BME280;5974;42.710;27.258;2023-12-20T11:57:47;99801.50;;;12.03;96.18
12349;BME280;5974;42.710;27.258;2023-12-20T12:00:16;99795.97;;;11.40;99.38
12349;BME280;5974;42.710;27.258;2023-12-20T12:02:55;99790.06;;;11.35;100.00
12349;BME280;5974;42.710;27.258;2023-12-20T12:05:21;99780.59;;;11.16;100.00
12349;BME280;5974;42.710;27.258;2023-12-20T12:07:48;99772.66;;;11.17;100.00
12349;BME280;5974;42.710;27.258;2023-12-20T12:10:15;99770.50;;;11.08;100.00
12349;BME280;5974;42.710;27.258;2023-12-20T12:12:42;99767.44;;;11.17;100.00
12349;BME280;5974;42.710;27.258;2023-12-20T12:15:09;99770.84;;;11.19;100.00
12349;BME280;5974;42.710;27.258;2023-12-20T12:17:37;99769.00;;;11.38;100.00
12349;BME280;5974;42.710;27.258;2023-12-20T12:20:05;99762.06;;;11.55;100.00
12349;BME280;5974;42.710;27.258;2023-12-20T12:22:32;99763.63;;;11.59;100.00
12349;BME280;5974;42.710;27.258;2023-12-20T12:25:09;99760.44;;;11.69;100.00
12349;BME280;5974;42.710;27.258;2023-12-20T12:27:36;99753.38;;;12.21;100.00
12349;BME280;5974;42.710;27.258;2023-12-20T12:30:05;99743.97;;;12.02;98.51
12349;BME280;5974;42.710;27.258;2023-12-20T12:32:33;99738.41;;;12.08;98.01
12349;BME280;5974;42.710;27.258;2023-12-20T12:35:03;99746.75;;;11.81;97.89
12349;BME280;5974;42.710;27.258;2023-12-20T12:37:30;99742.25;;;12.18;97.53
12349;BME280;5974;42.710;27.258;2023-12-20T12:39:57;99744.44;;;11.92;98.84
12349;BME280;5974;42.710;27.258;2023-12-20T12:42:24;99743.47;;;12.59;99.71
12349;BME280;5974;42.710;27.258;2023-12-20T12:44:54;99734.75;;;12.90;97.52
12349;BME280;5974;42.710;27.258;2023-12-20T12:47:20;99734.56;;;13.24;95.53
12349;BME280;5974;42.710;27.258;2023-12-20T12:49:49;99729.25;;;13.10;93.00
12349;BME280;5974;42.710;27.258;2023-12-20T12:52:19;99740.16;;;13.18;95.04